createdAt,value
2017-11-24T00:00:57.410Z,97340.80
2017-11-24T00:02:02.212Z,97343.67
2017-11-24T00:03:07.018Z,97334.63
2017-11-24T00:04:11.938Z,97340.03
2017-11-24T00:05:16.575Z,97338.06
2017-11-24T00:06:21.180Z,97335.00
2017-11-24T00:07:25.830Z,97336.81
2017-11-24T00:08:30.510Z,97333.09
2017-11-24T00:09:35.335Z,97337.61
2017-11-24T00:10:40.730Z,97334.80
2017-11-24T00:11:45.582Z,97333.55
2017-11-24T00:12:50.368Z,97323.20
2017-11-24T00:13:55.180Z,97325.70
2017-11-24T00:15:00.110Z,97321.75
2017-11-24T00:16:04.899Z,97314.05
2017-11-24T00:17:10.294Z,97314.09
2017-11-24T00:18:15.163Z,97327.17
2017-11-24T00:19:20.132Z,97323.61
2017-11-24T00:20:24.974Z,97326.68
2017-11-24T00:21:29.723Z,97325.72
2017-11-24T00:22:34.517Z,97334.44
2017-11-24T00:23:39.718Z,97332.50
2017-11-24T00:24:44.546Z,97327.31
2017-11-24T00:25:49.385Z,97321.56
2017-11-24T00:26:54.128Z,97318.20
2017-11-24T00:27:58.879Z,97323.86
2017-11-24T00:29:03.676Z,97311.81
2017-11-24T00:30:08.731Z,97313.56
2017-11-24T00:31:13.618Z,97317.59
2017-11-24T00:32:18.405Z,97313.16
2017-11-24T00:33:23.147Z,97311.77
2017-11-24T00:34:27.938Z,97311.74
2017-11-24T00:35:32.738Z,97310.20
2017-11-24T00:36:37.867Z,97309.99
2017-11-24T00:37:43.794Z,97311.10
2017-11-24T00:38:48.569Z,97309.23
2017-11-24T00:39:53.330Z,97302.72
2017-11-24T00:40:58.154Z,97310.44
2017-11-24T00:42:02.958Z,97305.39
2017-11-24T00:43:08.070Z,97305.80
2017-11-24T00:44:12.855Z,97306.94
2017-11-24T00:45:17.706Z,97296.91
2017-11-24T00:46:22.494Z,97293.69
2017-11-24T00:47:27.279Z,97294.92
2017-11-24T00:48:32.054Z,97301.19
2017-11-24T00:49:37.147Z,97299.34
2017-11-24T00:50:42.027Z,97311.44
2017-11-24T00:51:46.889Z,97311.91
2017-11-24T00:52:51.685Z,97303.58
2017-11-24T00:53:56.431Z,97318.92
2017-11-24T00:55:01.278Z,97312.09
2017-11-24T00:56:06.339Z,97311.67
2017-11-24T00:57:11.165Z,97310.19
2017-11-24T00:58:16.564Z,97312.75
2017-11-24T00:59:21.374Z,97317.66
2017-11-24T01:00:26.200Z,97315.38
2017-11-24T01:01:30.970Z,97318.19
2017-11-24T01:02:36.097Z,97312.09
2017-11-24T01:03:41.150Z,97303.11
2017-11-24T01:04:45.907Z,97307.10
2017-11-24T01:05:50.688Z,97301.78
2017-11-24T01:06:55.533Z,97299.89
2017-11-24T01:08:00.261Z,97300.62
2017-11-24T01:09:05.680Z,97295.65
2017-11-24T01:10:10.395Z,97299.65
2017-11-24T01:11:15.109Z,97304.83
2017-11-24T01:12:19.854Z,97308.59
2017-11-24T01:13:24.607Z,97309.05
2017-11-24T01:14:29.326Z,97303.41
2017-11-24T01:15:34.447Z,97299.39
2017-11-24T01:16:39.189Z,97295.39
2017-11-24T01:17:43.979Z,97299.12
2017-11-24T01:18:48.700Z,97300.38
2017-11-24T01:19:53.437Z,97298.86
2017-11-24T01:20:58.908Z,97297.16
2017-11-24T01:22:03.896Z,97300.98
2017-11-24T01:23:08.607Z,97303.77
2017-11-24T01:24:13.283Z,97299.34
2017-11-24T01:25:18.035Z,97291.44
2017-11-24T01:26:22.607Z,97293.09
2017-11-24T01:27:27.141Z,97290.77
2017-11-24T01:28:31.996Z,97284.81
2017-11-24T01:29:36.639Z,97279.20
2017-11-24T01:30:41.248Z,97281.08
2017-11-24T01:31:45.803Z,97279.44
2017-11-24T01:32:50.337Z,97279.20
2017-11-24T01:33:54.891Z,97285.62
2017-11-24T01:34:59.708Z,97285.33
2017-11-24T01:36:04.289Z,97286.10
2017-11-24T01:37:08.885Z,97274.86
2017-11-24T01:38:13.700Z,97273.29
2017-11-24T01:39:18.518Z,97272.66
2017-11-24T01:40:23.322Z,97272.41
2017-11-24T01:41:28.155Z,97264.80
2017-11-24T01:42:32.958Z,97275.00
2017-11-24T01:43:38.017Z,97266.64
2017-11-24T01:44:42.833Z,97261.50
2017-11-24T01:45:47.516Z,97264.73
2017-11-24T01:46:52.159Z,97253.37
2017-11-24T01:47:57.317Z,97256.33
2017-11-24T01:49:01.952Z,97251.08
2017-11-24T01:50:06.576Z,97244.23
2017-11-24T01:51:11.565Z,97253.48
2017-11-24T01:52:16.323Z,97243.34
2017-11-24T01:53:21.117Z,97247.56
2017-11-24T01:54:26.221Z,97236.39
2017-11-24T01:55:30.970Z,97229.48
2017-11-24T01:56:35.782Z,97219.36
2017-11-24T01:57:40.544Z,97210.52
2017-11-24T01:58:45.139Z,97214.53
2017-11-24T01:59:49.757Z,97211.51
2017-11-24T02:00:54.907Z,97216.45
2017-11-24T02:01:59.491Z,97216.59
2017-11-24T02:03:04.091Z,97208.33
2017-11-24T02:04:08.705Z,97207.91
2017-11-24T02:05:13.223Z,97198.16
2017-11-24T02:06:17.672Z,97195.14
2017-11-24T02:07:22.386Z,97192.11
2017-11-24T02:08:26.874Z,97187.83
2017-11-24T02:09:31.317Z,97192.95
2017-11-24T02:10:35.740Z,97193.17
2017-11-24T02:11:40.204Z,97195.63
2017-11-24T02:12:44.768Z,97192.11
2017-11-24T02:13:49.602Z,97185.26
2017-11-24T02:14:54.249Z,97196.34
2017-11-24T02:15:59.061Z,97204.47
2017-11-24T02:17:03.863Z,97204.05
2017-11-24T02:18:09.254Z,97206.87
2017-11-24T02:19:14.030Z,97192.42
2017-11-24T02:20:19.077Z,97200.89
2017-11-24T02:21:23.877Z,97192.67
2017-11-24T02:22:28.702Z,97185.25
2017-11-24T02:23:33.507Z,97182.98
2017-11-24T02:24:38.234Z,97179.57
2017-11-24T02:25:43.093Z,97182.58
2017-11-24T02:26:48.275Z,97171.75
2017-11-24T02:27:52.961Z,97174.00
2017-11-24T02:28:57.882Z,97178.11
2017-11-24T02:30:03.585Z,97172.91
2017-11-24T02:31:08.424Z,97173.30
2017-11-24T02:32:13.111Z,97172.70
2017-11-24T02:33:18.171Z,97172.05
2017-11-24T02:34:22.878Z,97179.33
2017-11-24T02:35:27.543Z,97167.70
2017-11-24T02:36:32.264Z,97169.49
2017-11-24T02:37:36.893Z,97161.47
2017-11-24T02:38:41.571Z,97160.17
2017-11-24T02:39:46.529Z,97161.67
2017-11-24T02:40:51.171Z,97164.79
2017-11-24T02:41:55.807Z,97162.78
2017-11-24T02:43:00.554Z,97167.25
2017-11-24T02:44:05.293Z,97160.66
2017-11-24T02:45:09.987Z,97158.16
2017-11-24T02:46:14.952Z,97149.11
2017-11-24T02:47:19.621Z,97146.95
2017-11-24T02:48:24.252Z,97147.86
2017-11-24T02:49:28.905Z,97144.09
2017-11-24T02:50:33.678Z,97138.32
2017-11-24T02:51:38.416Z,97140.92
2017-11-24T02:52:43.385Z,97139.88
2017-11-24T02:53:48.094Z,97134.50
2017-11-24T02:54:52.813Z,97148.63
2017-11-24T02:55:57.491Z,97143.36
2017-11-24T02:57:02.240Z,97145.80
2017-11-24T02:58:06.937Z,97135.33
2017-11-24T02:59:12.080Z,97133.05
2017-11-24T03:00:16.960Z,97140.23
2017-11-24T03:01:21.734Z,97140.58
2017-11-24T03:02:26.550Z,97145.31
2017-11-24T03:03:31.355Z,97134.38
2017-11-24T03:04:36.113Z,97127.63
2017-11-24T03:05:41.160Z,97122.93
2017-11-24T03:06:45.888Z,97152.36
2017-11-24T03:07:50.778Z,97111.61
2017-11-24T03:08:55.506Z,97129.70
2017-11-24T03:10:00.313Z,97134.28
2017-11-24T03:11:05.156Z,97119.36
2017-11-24T03:12:10.210Z,97128.07
2017-11-24T03:13:15.951Z,97118.16
2017-11-24T03:14:21.683Z,97106.75
2017-11-24T03:15:26.534Z,97112.44
2017-11-24T03:16:31.296Z,97113.94
2017-11-24T03:17:36.028Z,97106.67
2017-11-24T03:18:41.190Z,97110.63
2017-11-24T03:19:45.948Z,97096.67
2017-11-24T03:20:50.968Z,97082.83
2017-11-24T03:21:55.733Z,97088.02
2017-11-24T03:23:01.325Z,97126.18
2017-11-24T03:24:06.111Z,97089.89
2017-11-24T03:25:11.422Z,97100.09
2017-11-24T03:26:16.209Z,97099.58
2017-11-24T03:27:21.078Z,97100.03
2017-11-24T03:28:25.866Z,97099.87
2017-11-24T03:29:30.682Z,97119.78
2017-11-24T03:30:35.471Z,97095.66
2017-11-24T03:31:40.489Z,97082.55
2017-11-24T03:32:45.248Z,97078.50
2017-11-24T03:33:49.961Z,97062.39
2017-11-24T03:34:54.802Z,97062.41
2017-11-24T03:35:59.564Z,97069.08
2017-11-24T03:37:04.576Z,97064.29
2017-11-24T03:38:09.715Z,97057.51
2017-11-24T03:39:14.554Z,97065.91
2017-11-24T03:40:19.793Z,97062.45
2017-11-24T03:41:25.199Z,97065.51
2017-11-24T03:42:30.050Z,97057.59
2017-11-24T03:43:34.948Z,97067.41
2017-11-24T03:44:39.977Z,97060.52
2017-11-24T03:45:44.848Z,97059.27
2017-11-24T03:46:49.707Z,97072.24
2017-11-24T03:47:54.472Z,97070.42
2017-11-24T03:48:59.399Z,97079.17
2017-11-24T03:50:04.266Z,97063.97
2017-11-24T03:51:09.417Z,97078.88
2017-11-24T03:52:14.227Z,97076.93
2017-11-24T03:53:19.102Z,97084.95
2017-11-24T03:54:23.836Z,97072.77
2017-11-24T03:55:28.585Z,97074.55
2017-11-24T03:56:33.377Z,97067.91
2017-11-24T03:57:38.453Z,97091.38
2017-11-24T03:58:43.210Z,97091.06
2017-11-24T03:59:48.926Z,97116.41
2017-11-24T04:00:53.453Z,97088.28
2017-11-24T04:01:58.224Z,97076.66
2017-11-24T04:03:03.304Z,97084.89
2017-11-24T04:04:08.077Z,97099.01
2017-11-24T04:05:12.658Z,97086.55
2017-11-24T04:06:17.315Z,97092.08
2017-11-24T04:07:22.965Z,97064.38
2017-11-24T04:08:27.479Z,97057.44
2017-11-24T04:09:32.495Z,97062.88
2017-11-24T04:10:37.098Z,97055.23
2017-11-24T04:11:41.698Z,97047.80
2017-11-24T04:12:46.488Z,97055.05
2017-11-24T04:13:51.120Z,97049.05
2017-11-24T04:14:55.654Z,97051.27
2017-11-24T04:16:00.538Z,97041.73
2017-11-24T04:17:05.190Z,97043.52
2017-11-24T04:18:09.799Z,97048.36
2017-11-24T04:19:14.470Z,97037.52
2017-11-24T04:20:19.025Z,97031.28
2017-11-24T04:21:23.732Z,97027.05
2017-11-24T04:22:28.725Z,97030.59
2017-11-24T04:23:33.548Z,97027.80
2017-11-24T04:24:38.504Z,97019.33
2017-11-24T04:25:43.124Z,97028.48
2017-11-24T04:26:47.794Z,97038.13
2017-11-24T04:27:52.556Z,97032.12
2017-11-24T04:28:57.617Z,97020.30
2017-11-24T04:30:02.457Z,97022.47
2017-11-24T04:31:07.266Z,97027.83
2017-11-24T04:32:12.148Z,97026.70
2017-11-24T04:33:16.977Z,97010.70
2017-11-24T04:34:21.751Z,97008.36
2017-11-24T04:35:26.768Z,97006.08
2017-11-24T04:36:31.504Z,97007.39
2017-11-24T04:37:36.219Z,97023.21
2017-11-24T04:38:41.089Z,97009.45
2017-11-24T04:39:46.043Z,96998.99
2017-11-24T04:40:50.983Z,97013.22
2017-11-24T04:41:56.170Z,97020.48
2017-11-24T04:43:00.974Z,97021.05
2017-11-24T04:44:05.833Z,97022.41
2017-11-24T04:45:10.689Z,96997.80
2017-11-24T04:46:15.494Z,97009.11
2017-11-24T04:47:20.979Z,97020.47
2017-11-24T04:48:26.206Z,97001.14
2017-11-24T04:49:31.161Z,97005.89
2017-11-24T04:50:35.913Z,97036.48
2017-11-24T04:51:40.689Z,97010.06
2017-11-24T04:52:45.525Z,97020.53
2017-11-24T04:53:50.356Z,97011.95
2017-11-24T04:54:55.553Z,97010.17
2017-11-24T04:56:00.326Z,97014.52
2017-11-24T04:57:05.173Z,97022.36
2017-11-24T04:58:10.093Z,97032.59
2017-11-24T04:59:14.917Z,97019.33
2017-11-24T05:15:20.325Z,97040.95
2017-11-24T05:16:25.159Z,97024.81
2017-11-24T05:17:29.930Z,97017.95
2017-11-24T05:18:34.617Z,97045.27
2017-11-24T05:19:39.336Z,97007.81
2017-11-24T05:20:44.324Z,97024.88
2017-11-24T05:21:49.038Z,96996.30
2017-11-24T05:22:53.842Z,97013.84
2017-11-24T05:23:58.605Z,97005.20
2017-11-24T05:25:03.468Z,97038.48
2017-11-24T05:26:08.238Z,97002.62
2017-11-24T05:27:13.238Z,97004.23
2017-11-24T05:28:18.005Z,97000.74
2017-11-24T05:29:22.884Z,97016.13
2017-11-24T05:30:27.687Z,97035.03
2017-11-24T05:31:32.436Z,97032.62
2017-11-24T05:32:38.250Z,97068.55
2017-11-24T05:33:43.349Z,97019.19
2017-11-24T05:34:48.261Z,97007.75
2017-11-24T05:35:53.137Z,96982.27
2017-11-24T05:36:57.914Z,97000.28
2017-11-24T05:38:02.803Z,97000.94
2017-11-24T05:39:07.544Z,96998.59
2017-11-24T05:40:12.634Z,97008.23
2017-11-24T05:41:17.440Z,96990.16
2017-11-24T05:42:22.238Z,97016.78
2017-11-24T05:43:27.006Z,97002.48
2017-11-24T05:44:31.781Z,97015.92
2017-11-24T05:45:36.617Z,97017.09
2017-11-24T05:46:41.915Z,96983.88
2017-11-24T05:47:46.705Z,96995.94
2017-11-24T05:48:52.376Z,96982.56
2017-11-24T05:49:57.235Z,96989.13
2017-11-24T05:51:02.033Z,96985.98
2017-11-24T05:52:06.884Z,97004.86
2017-11-24T05:53:11.920Z,96984.50
2017-11-24T05:54:16.739Z,96984.22
2017-11-24T05:55:21.687Z,97007.03
2017-11-24T05:56:26.397Z,96966.28
2017-11-24T05:57:31.205Z,96977.53
2017-11-24T05:58:36.538Z,96990.34
2017-11-24T05:59:42.046Z,96992.56
2017-11-24T06:00:46.945Z,97006.17
2017-11-24T06:01:51.696Z,96993.20
2017-11-24T06:02:56.543Z,97016.23
2017-11-24T06:04:01.246Z,96980.78
2017-11-24T06:05:06.079Z,96987.22
2017-11-24T06:06:11.737Z,97002.20
2017-11-24T06:07:16.730Z,97042.41
2017-11-24T06:08:21.617Z,96994.41
2017-11-24T06:09:26.405Z,97013.78
2017-11-24T06:10:31.253Z,97042.06
2017-11-24T06:11:36.020Z,96972.28
2017-11-24T06:12:41.217Z,96998.37
2017-11-24T06:13:46.017Z,97008.20
2017-11-24T06:14:50.817Z,97008.69
2017-11-24T06:15:56.354Z,97003.83
2017-11-24T06:17:01.299Z,96999.11
2017-11-24T06:18:06.000Z,97000.03
2017-11-24T06:19:11.090Z,97003.57
2017-11-24T06:20:15.998Z,97028.85
2017-11-24T06:21:20.822Z,96999.11
2017-11-24T06:22:25.576Z,96985.21
2017-11-24T06:23:30.375Z,96992.42
2017-11-24T06:24:35.323Z,96979.50
2017-11-24T06:25:40.437Z,97013.70
2017-11-24T06:26:45.233Z,96988.87
2017-11-24T06:27:50.031Z,96981.83
2017-11-24T06:28:54.735Z,97035.56
2017-11-24T06:29:59.491Z,97039.38
2017-11-24T06:31:04.440Z,96982.69
2017-11-24T06:32:09.416Z,96994.48
2017-11-24T06:33:14.135Z,97010.66
2017-11-24T06:34:18.939Z,97022.78
2017-11-24T06:35:23.742Z,96991.96
2017-11-24T06:36:28.462Z,96989.22
2017-11-24T06:37:33.173Z,96997.28
2017-11-24T06:38:38.332Z,96985.89
2017-11-24T06:39:43.106Z,97014.78
2017-11-24T06:40:47.976Z,97017.87
2017-11-24T06:41:52.892Z,97022.50
2017-11-24T06:42:57.552Z,96970.39
2017-11-24T06:44:02.490Z,96989.50
2017-11-24T06:45:07.888Z,97026.70
2017-11-24T06:46:12.572Z,97009.92
2017-11-24T06:47:17.384Z,97022.39
2017-11-24T06:48:22.077Z,97033.03
2017-11-24T06:49:26.767Z,97005.69
2017-11-24T06:50:31.491Z,96986.30
2017-11-24T06:51:36.487Z,97026.93
2017-11-24T06:52:41.170Z,96996.81
2017-11-24T06:53:45.944Z,97015.30
2017-11-24T06:54:50.688Z,96958.90
2017-11-24T06:55:55.661Z,97013.63
2017-11-24T06:57:00.495Z,97013.52
2017-11-24T06:58:05.696Z,97056.83
2017-11-24T06:59:10.431Z,96963.39
2017-11-24T07:00:15.305Z,96988.76
2017-11-24T07:01:20.268Z,97035.28
2017-11-24T07:02:25.291Z,96984.12
2017-11-24T07:03:30.146Z,96983.59
2017-11-24T07:04:34.978Z,96989.91
2017-11-24T07:05:39.870Z,97006.50
2017-11-24T07:06:46.892Z,96975.66
2017-11-24T07:07:51.590Z,96995.64
2017-11-24T07:08:56.296Z,96997.69
2017-11-24T07:10:01.529Z,96981.95
2017-11-24T07:11:06.270Z,96997.37
2017-11-24T07:12:11.051Z,97006.27
2017-11-24T07:13:15.758Z,96996.66
2017-11-24T07:14:20.504Z,97028.06
2017-11-24T07:15:25.241Z,97048.16
2017-11-24T07:16:30.305Z,96993.41
2017-11-24T07:17:36.017Z,96998.30
2017-11-24T07:18:40.807Z,97024.30
2017-11-24T07:19:45.688Z,97039.69
2017-11-24T07:20:50.470Z,97009.92
2017-11-24T07:21:55.320Z,97011.48
2017-11-24T07:23:00.404Z,97000.77
2017-11-24T07:24:06.076Z,97006.59
2017-11-24T07:25:11.422Z,97039.62
2017-11-24T07:26:16.290Z,97038.58
2017-11-24T07:27:21.159Z,97021.30
2017-11-24T07:28:26.139Z,97030.81
2017-11-24T07:29:31.297Z,97022.56
2017-11-24T07:30:36.085Z,97000.71
2017-11-24T07:31:40.813Z,97016.69
2017-11-24T07:32:45.601Z,97017.48
2017-11-24T07:33:50.371Z,97041.80
2017-11-24T07:34:55.136Z,97000.77
2017-11-24T07:36:00.319Z,96979.76
2017-11-24T07:37:05.101Z,96998.19
2017-11-24T07:38:09.845Z,97026.18
2017-11-24T07:39:14.822Z,97038.08
2017-11-24T07:40:19.575Z,97011.53
2017-11-24T07:41:24.461Z,97002.47
2017-11-24T07:42:29.558Z,97033.54
2017-11-24T07:43:34.327Z,97027.19
2017-11-24T07:44:39.248Z,97022.27
2017-11-24T07:45:44.038Z,97009.62
2017-11-24T07:46:48.906Z,97030.65
2017-11-24T07:47:54.397Z,97002.78
2017-11-24T07:48:59.562Z,97014.40
2017-11-24T07:50:04.863Z,97009.34
2017-11-24T07:51:09.706Z,97030.42
2017-11-24T07:52:14.538Z,97013.20
2017-11-24T07:53:19.265Z,97023.07
2017-11-24T07:54:24.051Z,97010.55
2017-11-24T07:55:29.152Z,97010.60
2017-11-24T07:56:33.954Z,97012.89
2017-11-24T07:57:38.711Z,97024.45
2017-11-24T07:58:43.366Z,97028.91
2017-11-24T07:59:48.017Z,97014.49
2017-11-24T08:00:52.804Z,97013.58
2017-11-24T08:01:57.887Z,97039.66
2017-11-24T08:03:02.687Z,97010.72
2017-11-24T08:04:07.405Z,97023.64
2017-11-24T08:05:12.184Z,97017.12
2017-11-24T08:06:16.881Z,97027.94
2017-11-24T08:07:22.831Z,97036.57
2017-11-24T08:08:27.898Z,97001.55
2017-11-24T08:09:32.673Z,97037.31
2017-11-24T08:10:37.388Z,97031.11
2017-11-24T08:11:42.103Z,97043.20
2017-11-24T08:12:46.796Z,97041.92
2017-11-24T08:13:51.456Z,97068.03
2017-11-24T08:14:56.485Z,97034.69
2017-11-24T08:16:01.229Z,97046.41
2017-11-24T08:17:06.226Z,97040.17
2017-11-24T08:18:10.747Z,97025.77
2017-11-24T08:19:15.271Z,97028.84
2017-11-24T08:20:19.820Z,97075.47
2017-11-24T08:21:25.648Z,97043.61
2017-11-24T08:22:30.387Z,97026.22
2017-11-24T08:23:35.234Z,97015.06
2017-11-24T08:24:39.978Z,97046.06
2017-11-24T08:25:44.743Z,97012.38
2017-11-24T08:26:49.483Z,97036.86
2017-11-24T08:27:55.687Z,97019.41
2017-11-24T08:29:00.430Z,97045.73
2017-11-24T08:30:04.831Z,97054.99
2017-11-24T08:31:09.565Z,97040.12
2017-11-24T08:32:14.438Z,97050.02
2017-11-24T08:33:19.199Z,97046.64
2017-11-24T08:34:24.267Z,97052.53
2017-11-24T08:35:28.987Z,97067.17
2017-11-24T08:36:34.126Z,97039.55
2017-11-24T08:37:38.826Z,97062.83
2017-11-24T08:38:43.591Z,97052.88
2017-11-24T08:39:48.366Z,97094.64
2017-11-24T08:40:53.664Z,97080.91
2017-11-24T08:41:59.221Z,97050.87
2017-11-24T08:43:04.010Z,97029.88
2017-11-24T08:44:08.825Z,97039.95
2017-11-24T08:45:13.666Z,97036.80
2017-11-24T08:46:22.537Z,97029.53
2017-11-24T08:47:31.632Z,97032.39
2017-11-24T08:50:44.348Z,97031.20
2017-11-24T08:51:49.008Z,97040.34
2017-11-24T08:52:53.690Z,97042.58
2017-11-24T08:53:58.483Z,97050.87
2017-11-24T08:55:03.175Z,97061.69
2017-11-24T08:56:07.842Z,97066.27
2017-11-24T08:57:13.158Z,97066.60
2017-11-24T08:58:17.793Z,97083.20
2017-11-24T08:59:22.405Z,97054.19
2017-11-24T09:00:27.271Z,97071.06
2017-11-24T09:01:31.946Z,97068.95
2017-11-24T09:02:36.600Z,97054.08
2017-11-24T09:03:41.209Z,97049.09
2017-11-24T09:04:45.791Z,97052.94
2017-11-24T09:05:50.373Z,97053.73
2017-11-24T09:06:55.398Z,97060.25
2017-11-24T09:08:00.021Z,97061.52
2017-11-24T09:09:05.326Z,97055.45
2017-11-24T09:10:10.112Z,97060.88
2017-11-24T09:11:15.032Z,97063.28
2017-11-24T09:12:19.772Z,97065.05
2017-11-24T09:13:24.800Z,97063.45
2017-11-24T09:14:29.908Z,97090.91
2017-11-24T09:15:34.645Z,97056.66
2017-11-24T09:16:40.120Z,97080.91
2017-11-24T09:17:46.213Z,97070.09
2017-11-24T09:18:51.171Z,97078.91
2017-11-24T09:19:56.125Z,97072.55
2017-11-24T09:21:00.849Z,97075.02
2017-11-24T09:22:05.802Z,97084.34
2017-11-24T09:23:10.541Z,97069.45
2017-11-24T09:24:15.327Z,97075.81
2017-11-24T09:25:20.031Z,97090.46
2017-11-24T09:26:25.213Z,97090.86
2017-11-24T09:27:30.275Z,97073.35
2017-11-24T09:28:35.117Z,97084.05
2017-11-24T09:29:39.931Z,97089.42
2017-11-24T09:30:44.806Z,97089.53
2017-11-24T09:31:50.415Z,97079.81
2017-11-24T09:32:55.469Z,97078.62
2017-11-24T09:34:00.286Z,97074.89
2017-11-24T09:35:05.158Z,97092.86
2017-11-24T09:36:10.000Z,97095.32
2017-11-24T09:37:14.795Z,97088.34
2017-11-24T09:38:19.720Z,97087.20
2017-11-24T09:39:24.816Z,97083.54
2017-11-24T09:40:29.618Z,97095.76
2017-11-24T09:41:34.417Z,97092.11
2017-11-24T09:42:39.173Z,97093.77
2017-11-24T09:43:43.815Z,97097.07
2017-11-24T09:44:48.494Z,97095.59
2017-11-24T09:45:53.454Z,97102.07
2017-11-24T09:46:58.060Z,97104.37
2017-11-24T09:48:02.744Z,97105.06
2017-11-24T11:15:40.565Z,97225.34
2017-11-24T11:16:45.120Z,97231.32
2017-11-24T11:17:49.966Z,97228.28
2017-11-24T11:18:54.477Z,97237.19
2017-11-24T11:19:59.154Z,97241.61
2017-11-24T11:21:04.203Z,97248.70
2017-11-24T11:22:10.059Z,97243.77
2017-11-24T11:23:14.922Z,97239.22
2017-11-24T11:24:19.700Z,97237.41
2017-11-24T11:25:24.421Z,97244.41
2017-11-24T11:26:29.187Z,97243.62
2017-11-24T11:27:34.184Z,97245.59
2017-11-24T11:28:39.161Z,97240.31
2017-11-24T11:29:44.210Z,97246.22
2017-11-24T11:30:49.278Z,97251.92
2017-11-24T11:31:54.689Z,97255.09
2017-11-24T11:32:59.431Z,97258.27
2017-11-24T11:34:04.616Z,97254.80
2017-11-24T11:35:09.359Z,97255.95
2017-11-24T11:36:14.156Z,97259.60
2017-11-24T11:37:19.739Z,97251.99
2017-11-24T11:38:24.533Z,97254.39
2017-11-24T11:39:29.394Z,97256.05
2017-11-24T11:40:34.430Z,97254.09
2017-11-24T11:41:39.131Z,97248.89
2017-11-24T11:42:43.980Z,97254.95
2017-11-24T11:43:48.732Z,97255.38
2017-11-24T11:44:53.441Z,97260.30
2017-11-24T11:45:58.459Z,97258.13
2017-11-24T11:47:03.447Z,97252.28
2017-11-24T11:48:08.158Z,97260.77
2017-11-24T11:49:13.090Z,97258.70
2017-11-24T11:50:17.809Z,97260.81
2017-11-24T11:51:22.519Z,97259.83
2017-11-24T11:52:27.280Z,97263.59
2017-11-24T11:53:32.486Z,97262.92
2017-11-24T11:54:39.045Z,97259.80
2017-11-24T11:55:43.842Z,97268.15
2017-11-24T11:56:48.562Z,97264.78
2017-11-24T11:57:53.284Z,97266.61
2017-11-24T11:58:58.061Z,97268.69
2017-11-24T12:00:03.256Z,97276.30
2017-11-24T12:01:07.980Z,97273.99
2017-11-24T12:02:12.851Z,97270.98
2017-11-24T12:03:17.601Z,97276.59
2017-11-24T12:04:22.308Z,97276.23
2017-11-24T12:05:27.924Z,97276.47
2017-11-24T12:06:33.058Z,97278.34
2017-11-24T12:07:38.655Z,97280.32
2017-11-24T12:08:43.510Z,97276.90
2017-11-24T12:09:48.550Z,97274.80
2017-11-24T12:10:53.485Z,97270.04
2017-11-24T12:11:58.204Z,97268.83
2017-11-24T12:13:03.341Z,97277.33
2017-11-24T12:14:08.065Z,97273.47
2017-11-24T12:15:12.781Z,97271.27
2017-11-24T12:16:17.497Z,97279.89
2017-11-24T12:17:22.434Z,97280.84
2017-11-24T12:18:27.270Z,97277.52
2017-11-24T12:19:32.533Z,97284.39
2017-11-24T12:20:37.292Z,97283.75
2017-11-24T12:21:42.247Z,97288.04
2017-11-24T12:22:47.105Z,97282.90
2017-11-24T12:23:51.861Z,97279.61
2017-11-24T12:24:56.605Z,97280.48
2017-11-24T12:26:01.703Z,97287.16
2017-11-24T12:27:06.727Z,97283.53
2017-11-24T12:28:11.559Z,97279.59
2017-11-24T12:29:16.705Z,97278.95
2017-11-24T12:30:21.512Z,97278.00
2017-11-24T12:31:26.911Z,97279.78
2017-11-24T12:32:31.653Z,97281.57
2017-11-24T12:33:36.601Z,97286.09
2017-11-24T12:34:41.358Z,97286.88
2017-11-24T12:35:46.139Z,97285.13
2017-11-24T12:36:50.779Z,97281.04
2017-11-24T12:37:56.197Z,97288.86
2017-11-24T12:39:01.304Z,97291.50
2017-11-24T12:40:06.319Z,97284.47
2017-11-24T12:41:11.148Z,97287.40
2017-11-24T12:42:16.420Z,97285.09
2017-11-24T12:43:21.650Z,97285.02
2017-11-24T12:44:27.070Z,97302.70
2017-11-24T12:45:32.169Z,97297.41
2017-11-24T12:46:37.326Z,97301.88
2017-11-24T12:47:42.736Z,97300.40
2017-11-24T12:48:47.770Z,97308.92
2017-11-24T12:49:53.120Z,97299.23
2017-11-24T12:50:58.650Z,97303.23
2017-11-24T12:52:03.765Z,97301.11
2017-11-24T12:53:08.857Z,97293.62
2017-11-24T12:54:13.949Z,97299.80
2017-11-24T12:55:18.836Z,97304.27
2017-11-24T12:56:23.873Z,97296.91
2017-11-24T12:57:29.169Z,97297.00
2017-11-24T12:58:34.217Z,97299.46
2017-11-24T12:59:39.314Z,97303.55
2017-11-24T13:00:44.542Z,97308.27
2017-11-24T13:01:49.936Z,97307.06
2017-11-24T13:02:54.973Z,97314.98
2017-11-24T13:04:00.579Z,97318.42
2017-11-24T13:05:05.856Z,97321.06
2017-11-24T13:06:11.182Z,97323.03
2017-11-24T13:07:16.277Z,97329.61
2017-11-24T13:08:21.430Z,97331.70
2017-11-24T13:09:26.896Z,97334.66
2017-11-24T13:10:32.395Z,97338.28
2017-11-24T13:11:37.488Z,97340.84
2017-11-24T13:12:42.644Z,97338.08
2017-11-24T13:13:47.896Z,97338.28
2017-11-24T13:14:53.021Z,97340.13
2017-11-24T13:15:58.062Z,97341.95
2017-11-24T13:17:03.668Z,97339.19
2017-11-24T13:18:08.831Z,97346.66
2017-11-24T13:19:14.902Z,97347.00
2017-11-24T13:20:20.946Z,97338.78
2017-11-24T13:21:25.806Z,97350.77
2017-11-24T13:22:31.260Z,97352.95
2017-11-24T13:23:36.614Z,97348.21
2017-11-24T13:24:41.599Z,97354.88
2017-11-24T13:25:46.561Z,97362.13
2017-11-24T13:26:51.704Z,97365.30
2017-11-24T13:27:56.460Z,97365.89
2017-11-24T13:29:01.835Z,97359.48
2017-11-24T13:30:07.456Z,97357.98
2017-11-24T13:31:12.736Z,97365.44
2017-11-24T13:32:17.972Z,97368.57
2017-11-24T13:33:23.085Z,97363.23
2017-11-24T13:34:27.858Z,97357.53
2017-11-24T13:35:32.535Z,97369.80
2017-11-24T13:36:37.206Z,97367.89
2017-11-24T13:37:42.542Z,97366.63
2017-11-24T13:38:47.812Z,97359.67
2017-11-24T13:39:52.900Z,97363.23
2017-11-24T13:40:58.178Z,97359.56
2017-11-24T13:42:03.355Z,97362.58
2017-11-24T13:43:08.967Z,97363.23
2017-11-24T13:44:14.299Z,97362.04
2017-11-24T13:45:19.608Z,97374.94
2017-11-24T13:46:24.726Z,97370.23
2017-11-24T13:47:29.934Z,97370.95
2017-11-24T13:48:34.739Z,97360.39
2017-11-24T13:49:40.525Z,97364.14
2017-11-24T13:50:45.668Z,97365.18
2017-11-24T13:51:50.769Z,97366.71
2017-11-24T13:52:55.793Z,97366.24
2017-11-24T13:54:01.808Z,97361.77
2017-11-24T13:55:06.869Z,97375.12
2017-11-24T13:56:12.499Z,97374.56
2017-11-24T13:57:17.684Z,97376.87
2017-11-24T13:58:22.684Z,97375.34
2017-11-24T13:59:27.874Z,97374.66
2017-11-24T14:00:32.748Z,97375.38
2017-11-24T14:01:37.967Z,97378.31
2017-11-24T14:02:43.327Z,97375.00
2017-11-24T14:03:49.627Z,97373.31
2017-11-24T14:04:54.858Z,97367.76
2017-11-24T14:06:00.088Z,97372.80
2017-11-24T14:07:06.809Z,97376.39
2017-11-24T14:08:11.966Z,97386.21
2017-11-24T14:09:18.135Z,97378.89
2017-11-24T14:10:23.453Z,97386.48
2017-11-24T14:11:28.763Z,97391.14
2017-11-24T14:12:34.130Z,97400.00
2017-11-24T14:13:39.241Z,97393.87
2017-11-24T14:14:44.643Z,97400.46
2017-11-24T14:15:50.117Z,97405.47
2017-11-24T14:16:55.409Z,97406.59
2017-11-24T14:18:00.805Z,97410.31
2017-11-24T14:19:06.330Z,97406.47
2017-11-24T14:20:11.637Z,97414.99
2017-11-24T14:21:16.872Z,97422.38
2017-11-24T14:22:22.501Z,97415.19
2017-11-24T14:23:28.454Z,97408.23
2017-11-24T14:24:33.882Z,97408.35
2017-11-24T14:25:39.424Z,97413.12
2017-11-24T14:26:44.623Z,97413.52